Terminal Aerodrome Forecast
Issued by NWS

Home | Current Version | Previous Version | Text Only | Print | Product List | Glossary On
Versions: 1 2 3 4 5 6 7 8 9 10 11 12 13 14 15
000
FTUS45 KRIW 251729
TAFJAC
TAF
KJAC 251729Z 2518/2618 21007KT P6SM VCSH SCT010 BKN035
      TEMPO 2518/2522 -SHRA BKN024
     FM260000 19006KT P6SM VCSH SCT015 BKN028
     FM260300 VRB05KT P6SM SCT035 BKN070
     FM260800 35005KT P6SM VCFG FEW005 SCT040
     FM261600 VRB04KT P6SM SCT050
      AMD LTD TO CLD VIS AND WIND=

USA.gov is the U.S. government's official web portal to all federal, state and local government web resources and services.